Time;durP1;ratioP1;P1;durP2;ratioP2;P2;SDS_P1;SDS_P2;PMS_P1;PMS_P2;Temp;Humidity;BMP_temperature;BMP_pressure;BME280_temperature;BME280_humidity;BME280_pressure;Samples;Min_cycle;Max_cycle;Signal;HPM_P1;HPM_P2
2022/03/22 00:00:57;;;;;;;22.25;13.88;;;12.20;64.60;;;;;;5095501;28;20016;-31
2022/03/22 00:03:25;;;;;;;25.23;15.07;;;12.10;64.60;;;;;;5095442;28;20464;-29
2022/03/22 00:05:52;;;;;;;18.65;13.57;;;12.20;64.70;;;;;;5095207;28;20020;-28
2022/03/22 00:08:18;;;;;;;24.95;14.77;;;12.10;64.70;;;;;;5076828;28;20051;-30
2022/03/22 00:10:44;;;;;;;20.48;14.23;;;12.10;64.80;;;;;;5095116;28;20109;-34
2022/03/22 00:13:10;;;;;;;22.10;14.27;;;12.10;64.80;;;;;;5094877;28;20145;-29
2022/03/22 00:15:36;;;;;;;21.60;13.90;;;12.00;64.80;;;;;;5094724;28;20447;-32
2022/03/22 00:18:03;;;;;;;21.92;14.32;;;12.00;64.80;;;;;;5094845;28;20099;-30
2022/03/22 00:20:28;;;;;;;23.67;14.80;;;12.00;64.90;;;;;;5094777;28;20016;-30
2022/03/22 00:22:54;;;;;;;23.00;14.68;;;12.00;64.90;;;;;;5094727;28;20027;-31
2022/03/22 00:25:20;;;;;;;22.10;14.82;;;12.00;64.90;;;;;;5094738;28;20028;-34
2022/03/22 00:27:53;;;;;;;22.42;14.73;;;12.00;64.90;;;;;;5094681;28;20104;-29
2022/03/22 00:30:25;;;;;;;24.35;15.63;;;12.00;65.00;;;;;;5094548;28;20028;-29
2022/03/22 00:32:53;;;;;;;21.75;14.18;;;11.90;65.00;;;;;;5094493;28;20115;-30
2022/03/22 00:35:29;;;;;;;22.25;13.93;;;11.90;65.00;;;;;;5094292;28;20020;-29
2022/03/22 00:37:57;;;;;;;21.83;14.80;;;11.90;65.00;;;;;;5094281;28;20020;-29
2022/03/22 00:40:25;;;;;;;22.30;14.43;;;11.90;65.10;;;;;;5094134;28;20380;-32
2022/03/22 00:42:54;;;;;;;24.20;13.50;;;11.80;65.00;;;;;;5094042;28;20048;-31
2022/03/22 00:45:23;;;;;;;20.58;13.25;;;11.80;65.10;;;;;;5094304;28;20430;-29
2022/03/22 00:47:52;;;;;;;18.98;13.95;;;11.80;65.10;;;;;;5094405;28;20021;-29
2022/03/22 00:50:23;;;;;;;21.95;13.98;;;11.80;65.20;;;;;;5094456;28;20024;-30
2022/03/22 00:52:49;;;;;;;23.30;14.65;;;11.80;65.20;;;;;;5094171;28;20456;-30
2022/03/22 00:55:15;;;;;;;22.83;14.15;;;11.70;65.30;;;;;;5093906;28;20030;-29
2022/03/22 00:57:42;;;;;;;21.30;13.55;;;11.70;65.30;;;;;;5094103;28;20489;-31
2022/03/22 01:00:11;;;;;;;19.08;13.68;;;11.70;65.30;;;;;;5094038;28;20060;-33
2022/03/22 01:02:49;;;;;;;20.25;14.25;;;11.60;65.30;;;;;;5093946;28;20024;-29
2022/03/22 01:05:17;;;;;;;19.90;13.73;;;11.70;65.40;;;;;;5093322;28;20028;-32
2022/03/22 01:07:45;;;;;;;20.80;13.77;;;11.60;65.30;;;;;;5094075;28;20099;-30
2022/03/22 01:10:12;;;;;;;21.08;13.80;;;11.60;65.40;;;;;;5093875;28;20504;-30
2022/03/22 01:12:39;;;;;;;22.52;13.68;;;11.60;65.40;;;;;;5094009;28;20540;-31
2022/03/22 01:15:11;;;;;;;20.00;13.93;;;11.60;65.40;;;;;;5093721;28;20118;-29
2022/03/22 01:17:37;;;;;;;21.60;13.68;;;11.50;65.40;;;;;;5093621;28;20468;-32
2022/03/22 01:20:05;;;;;;;21.13;14.00;;;11.50;65.40;;;;;;5093641;28;20023;-28
2022/03/22 01:22:31;;;;;;;23.20;13.63;;;11.50;65.40;;;;;;5093587;28;20035;-29
2022/03/22 01:24:57;;;;;;;19.77;13.27;;;11.50;65.40;;;;;;5093906;28;20020;-29
2022/03/22 01:27:22;;;;;;;21.10;13.85;;;11.50;65.50;;;;;;5075310;28;20027;-29
2022/03/22 01:29:51;;;;;;;18.83;13.00;;;11.50;65.50;;;;;;5093514;28;20024;-30
2022/03/22 01:32:17;;;;;;;20.17;13.38;;;11.50;65.50;;;;;;5093460;28;20069;-29
2022/03/22 01:34:42;;;;;;;23.17;13.48;;;11.40;65.50;;;;;;5093528;28;20481;-29
2022/03/22 01:37:09;;;;;;;22.30;13.85;;;11.40;65.50;;;;;;5093355;28;20032;-29
2022/03/22 01:39:35;;;;;;;21.35;13.32;;;11.40;65.60;;;;;;5093412;28;20023;-30
2022/03/22 01:42:00;;;;;;;19.98;13.68;;;11.30;65.60;;;;;;5093378;28;20031;-32
2022/03/22 01:44:27;;;;;;;20.95;13.43;;;11.40;65.70;;;;;;5093341;28;20438;-30
2022/03/22 01:46:59;;;;;;;21.92;14.23;;;11.30;65.60;;;;;;5093397;28;20396;-29
2022/03/22 01:49:24;;;;;;;20.02;13.00;;;11.30;65.70;;;;;;5093297;28;20027;-32
2022/03/22 01:51:52;;;;;;;20.33;13.65;;;11.30;65.70;;;;;;5093349;28;20476;-31
2022/03/22 01:54:18;;;;;;;17.77;12.88;;;11.30;65.80;;;;;;5093522;28;20464;-29
2022/03/22 01:56:44;;;;;;;18.13;13.25;;;11.30;65.80;;;;;;5093014;28;20147;-29
2022/03/22 01:59:09;;;;;;;17.38;13.18;;;11.30;65.90;;;;;;5093481;28;20437;-30
2022/03/22 02:07:05;;;;;;;22.15;13.43;;;11.20;66.00;;;;;;5093355;28;20034;-30
2022/03/22 02:09:32;;;;;;;20.10;13.25;;;11.20;66.00;;;;;;5093038;28;20103;-30
2022/03/22 02:11:57;;;;;;;22.77;14.00;;;11.10;66.00;;;;;;5093013;28;20016;-29
2022/03/22 02:14:23;;;;;;;20.10;13.80;;;11.10;66.10;;;;;;5093054;28;20030;-31
2022/03/22 02:16:48;;;;;;;21.05;13.70;;;11.10;66.20;;;;;;5093788;28;20035;-29
2022/03/22 02:19:15;;;;;;;18.08;13.05;;;11.00;66.20;;;;;;5097068;28;20020;-29
2022/03/22 02:21:41;;;;;;;19.45;13.05;;;11.00;66.30;;;;;;5097162;28;20020;-31
2022/03/22 02:24:07;;;;;;;19.02;12.93;;;11.00;66.40;;;;;;5097099;28;20102;-30
2022/03/22 02:26:33;;;;;;;19.60;13.40;;;10.90;66.40;;;;;;5096954;28;20024;-32
2022/03/22 02:28:59;;;;;;;20.35;13.60;;;10.90;66.50;;;;;;5096994;28;20051;-29
2022/03/22 02:31:28;;;;;;;22.58;13.32;;;10.80;66.60;;;;;;5096934;28;20365;-30
2022/03/22 02:33:53;;;;;;;19.73;13.15;;;10.80;66.70;;;;;;5097104;28;20461;-29
2022/03/22 02:36:20;;;;;;;20.77;13.80;;;10.80;66.70;;;;;;5096740;28;20035;-29
2022/03/22 02:38:45;;;;;;;20.25;13.60;;;10.70;66.70;;;;;;5096739;28;20464;-35
2022/03/22 02:41:17;;;;;;;18.80;13.55;;;10.70;66.80;;;;;;5096713;28;20020;-30
2022/03/22 02:43:43;;;;;;;19.63;13.45;;;10.70;66.90;;;;;;5097001;28;20492;-29
2022/03/22 02:46:09;;;;;;;19.30;13.63;;;10.70;67.00;;;;;;5096736;28;20085;-35
2022/03/22 02:48:35;;;;;;;18.35;12.63;;;10.60;67.00;;;;;;5096838;28;20032;-30
2022/03/22 02:51:00;;;;;;;21.00;13.60;;;10.60;67.00;;;;;;5096547;28;20016;-31
2022/03/22 02:53:26;;;;;;;24.17;13.65;;;10.60;67.10;;;;;;5096554;28;20024;-29
2022/03/22 02:55:51;;;;;;;20.52;12.93;;;10.50;67.20;;;;;;5096274;28;20036;-30
2022/03/22 02:58:17;;;;;;;19.98;13.60;;;10.50;67.20;;;;;;5096437;28;20495;-30
2022/03/22 03:00:43;;;;;;;21.90;13.77;;;10.50;67.30;;;;;;5078220;28;20100;-29
2022/03/22 03:03:08;;;;;;;20.70;13.48;;;10.40;67.30;;;;;;5096384;28;20163;-32
2022/03/22 03:05:34;;;;;;;19.80;13.80;;;10.50;67.40;;;;;;5096279;28;20499;-29
2022/03/22 03:08:00;;;;;;;17.23;12.63;;;10.40;67.40;;;;;;5078047;28;20050;-29
2022/03/22 03:10:26;;;;;;;23.33;14.27;;;10.40;67.50;;;;;;5096175;28;20023;-29
2022/03/22 03:13:05;;;;;;;20.23;13.70;;;10.40;67.60;;;;;;5096195;28;20422;-30
2022/03/22 03:15:31;;;;;;;22.05;13.90;;;10.40;67.70;;;;;;5096002;28;20028;-29
2022/03/22 03:18:00;;;;;;;19.80;13.73;;;10.30;67.70;;;;;;5096115;28;20150;-29
2022/03/22 03:20:27;;;;;;;23.08;14.23;;;10.30;67.80;;;;;;5077887;28;20088;-30
2022/03/22 03:22:52;;;;;;;22.13;14.13;;;10.30;67.80;;;;;;5095907;28;20081;-29
2022/03/22 03:25:18;;;;;;;19.63;13.38;;;10.30;67.80;;;;;;5095916;28;20059;-31
2022/03/22 03:27:44;;;;;;;22.02;13.98;;;10.20;67.80;;;;;;5096118;28;20436;-29
2022/03/22 03:30:10;;;;;;;19.77;14.27;;;10.20;67.90;;;;;;5094943;28;20426;-32
2022/03/22 03:32:36;;;;;;;25.10;14.35;;;10.20;67.90;;;;;;5095915;28;20077;-30
2022/03/22 03:35:03;;;;;;;21.50;14.43;;;10.20;68.00;;;;;;5095570;28;20031;-29
2022/03/22 03:37:31;;;;;;;21.67;14.43;;;10.20;68.00;;;;;;5095725;28;20193;-29
2022/03/22 03:39:57;;;;;;;20.25;14.10;;;10.20;68.00;;;;;;5095594;28;20103;-32
2022/03/22 03:42:22;;;;;;;19.08;13.23;;;10.20;68.10;;;;;;5095824;28;20054;-29
2022/03/22 03:47:34;;;;;;;22.65;14.50;;;10.10;68.10;;;;;;5095405;28;20073;-30
2022/03/22 03:50:02;;;;;;;20.05;14.00;;;10.10;68.10;;;;;;5095470;28;20464;-38
2022/03/22 03:52:32;;;;;;;21.77;14.15;;;10.10;68.20;;;;;;5094172;28;20072;-28
2022/03/22 03:54:59;;;;;;;19.35;13.65;;;10.10;68.20;;;;;;5095333;28;20024;-29
2022/03/22 03:57:25;;;;;;;24.27;14.20;;;10.10;68.20;;;;;;5095003;28;20500;-31
2022/03/22 03:59:52;;;;;;;23.20;14.57;;;10.00;68.90;;;;;;5095242;28;20035;-29
2022/03/22 04:02:18;;;;;;;23.63;14.82;;;10.00;68.30;;;;;;5077276;28;20052;-30
2022/03/22 04:04:47;;;;;;;21.23;14.38;;;10.00;68.40;;;;;;5077222;28;20027;-29
2022/03/22 04:07:13;;;;;;;21.98;13.40;;;9.90;68.30;;;;;;5095106;28;20024;-30
2022/03/22 04:09:39;;;;;;;21.38;14.48;;;9.90;68.40;;;;;;5094994;28;20047;-30
2022/03/22 04:12:06;;;;;;;23.70;13.98;;;9.90;68.40;;;;;;5095152;28;20111;-29
2022/03/22 04:14:32;;;;;;;22.73;14.18;;;9.90;68.50;;;;;;5094902;28;20028;-29
2022/03/22 04:16:58;;;;;;;20.80;14.65;;;9.80;68.50;;;;;;5095036;28;20111;-29
2022/03/22 04:19:25;;;;;;;21.17;14.48;;;9.80;68.60;;;;;;5094835;28;20022;-30
2022/03/22 04:21:50;;;;;;;22.63;14.63;;;9.80;68.60;;;;;;5094761;28;20047;-30
2022/03/22 04:24:16;;;;;;;23.40;14.00;;;9.80;68.70;;;;;;5094741;28;20105;-29
2022/03/22 04:26:43;;;;;;;21.95;13.43;;;9.70;68.70;;;;;;5076416;28;20030;-31
2022/03/22 04:34:41;;;;;;;22.35;13.65;;;9.70;68.80;;;;;;5094436;28;20039;-30
2022/03/22 04:37:08;;;;;;;21.77;13.93;;;9.60;68.70;;;;;;5076252;28;20078;-29
2022/03/22 04:39:35;;;;;;;19.92;13.05;;;9.70;68.80;;;;;;5094421;28;20008;-33
2022/03/22 04:42:01;;;;;;;21.02;13.80;;;9.60;68.90;;;;;;5094327;28;20024;-30
2022/03/22 04:44:29;;;;;;;20.90;13.68;;;9.60;68.90;;;;;;5094517;28;20013;-29
2022/03/22 04:46:56;;;;;;;20.55;13.98;;;9.60;69.00;;;;;;5094258;28;20028;-29
2022/03/22 04:49:23;;;;;;;19.48;13.27;;;9.60;69.00;;;;;;5094186;28;20493;-29
2022/03/22 04:57:17;;;;;;;21.45;13.38;;;9.60;69.10;;;;;;5093936;28;20050;-28
2022/03/22 04:59:43;;;;;;;20.05;13.43;;;9.50;69.00;;;;;;5093949;28;20484;-30
2022/03/22 05:02:10;;;;;;;19.75;14.18;;;9.60;69.10;;;;;;5093990;28;20024;-29
2022/03/22 05:04:35;;;;;;;22.55;13.85;;;9.50;69.10;;;;;;5094013;28;20522;-29
2022/03/22 05:07:01;;;;;;;22.27;15.05;;;9.50;69.10;;;;;;5093974;28;20097;-33
2022/03/22 05:09:30;;;;;;;19.63;14.25;;;9.60;69.10;;;;;;5093780;28;20048;-32
2022/03/22 05:11:59;;;;;;;22.55;14.25;;;9.60;69.10;;;;;;5093871;28;20081;-29
2022/03/22 05:14:26;;;;;;;22.40;13.63;;;9.60;69.10;;;;;;5093995;28;20464;-29
2022/03/22 05:16:51;;;;;;;23.10;14.85;;;9.60;69.00;;;;;;5075552;28;20031;-28
2022/03/22 05:19:18;;;;;;;21.27;14.18;;;9.60;69.00;;;;;;5093965;28;20024;-29
2022/03/22 05:21:44;;;;;;;21.40;14.07;;;9.70;69.00;;;;;;5093872;28;20095;-29
2022/03/22 05:24:10;;;;;;;23.10;14.70;;;9.70;69.00;;;;;;5075499;28;20016;-30
2022/03/22 05:26:36;;;;;;;26.25;14.77;;;9.70;68.90;;;;;;5093768;28;20054;-30
2022/03/22 05:29:04;;;;;;;22.48;14.10;;;9.70;68.90;;;;;;5093675;28;20024;-29
2022/03/22 05:31:31;;;;;;;23.85;14.65;;;9.80;68.80;;;;;;5093484;28;20028;-28
2022/03/22 05:33:57;;;;;;;23.65;14.40;;;9.80;68.70;;;;;;5093689;28;20021;-29
2022/03/22 05:36:23;;;;;;;20.17;13.93;;;9.90;68.70;;;;;;5093655;28;20361;-33
2022/03/22 05:38:49;;;;;;;21.40;14.32;;;9.90;68.60;;;;;;5093750;28;20016;-35
2022/03/22 05:41:14;;;;;;;20.90;14.98;;;9.90;68.50;;;;;;5093262;28;20050;-29
2022/03/22 05:43:41;;;;;;;17.90;12.77;;;10.00;68.40;;;;;;5093324;28;20024;-30
2022/03/22 05:46:08;;;;;;;20.02;13.38;;;10.00;68.40;;;;;;5093646;28;20036;-29
2022/03/22 05:48:34;;;;;;;22.85;14.13;;;10.00;68.30;;;;;;5093466;28;20468;-28
2022/03/22 05:50:59;;;;;;;20.73;13.73;;;10.00;68.20;;;;;;5093200;28;20106;-29
2022/03/22 05:53:25;;;;;;;18.08;12.98;;;10.10;68.20;;;;;;5093091;28;20468;-33
2022/03/22 05:55:51;;;;;;;19.58;13.55;;;10.10;68.10;;;;;;5092948;28;20044;-29
2022/03/22 05:58:16;;;;;;;18.77;13.55;;;10.20;68.10;;;;;;5093447;28;20028;-33
2022/03/22 06:00:42;;;;;;;21.48;14.57;;;10.20;68.00;;;;;;5093055;28;20027;-29
2022/03/22 06:03:08;;;;;;;22.38;14.25;;;10.20;68.00;;;;;;5093163;28;20024;-30
2022/03/22 06:05:33;;;;;;;20.75;14.25;;;10.30;67.90;;;;;;5093054;28;20028;-29
2022/03/22 06:07:59;;;;;;;20.63;14.40;;;10.30;67.80;;;;;;5093252;28;20085;-29
2022/03/22 06:10:26;;;;;;;24.92;14.57;;;10.40;67.80;;;;;;5093075;28;20030;-31
2022/03/22 06:12:55;;;;;;;19.65;13.90;;;10.40;67.80;;;;;;5093019;28;20024;-29
2022/03/22 06:15:26;;;;;;;22.25;14.18;;;10.50;67.70;;;;;;5092660;28;20024;-30
2022/03/22 06:17:58;;;;;;;21.05;14.75;;;10.50;67.60;;;;;;5093015;28;20020;-29
2022/03/22 06:20:26;;;;;;;21.60;14.15;;;10.50;67.50;;;;;;5092925;28;20465;-31
2022/03/22 06:22:52;;;;;;;20.48;14.23;;;10.60;67.50;;;;;;5093032;28;20512;-30
2022/03/22 06:25:18;;;;;;;22.85;14.75;;;10.60;67.40;;;;;;5092684;28;20026;-30
2022/03/22 06:27:46;;;;;;;20.77;14.10;;;10.70;67.30;;;;;;5092721;28;20020;-33
2022/03/22 06:30:13;;;;;;;18.38;13.60;;;10.70;67.20;;;;;;5092762;28;20429;-30
2022/03/22 06:32:46;;;;;;;23.73;14.68;;;10.80;67.10;;;;;;5092777;28;20020;-29
2022/03/22 06:35:14;;;;;;;20.85;14.00;;;10.80;66.90;;;;;;5092564;28;20369;-29
2022/03/22 06:37:40;;;;;;;20.73;14.73;;;10.80;66.80;;;;;;5092636;28;20416;-29
2022/03/22 06:40:09;;;;;;;20.25;13.93;;;10.90;66.70;;;;;;5092796;28;20043;-29
2022/03/22 06:42:36;;;;;;;21.25;13.77;;;10.90;66.50;;;;;;5092511;28;20150;-29
2022/03/22 06:45:03;;;;;;;19.15;13.77;;;11.00;66.30;;;;;;5092583;28;20027;-29
2022/03/22 06:47:29;;;;;;;19.77;13.40;;;11.10;66.20;;;;;;5092478;28;20028;-29
2022/03/22 06:49:55;;;;;;;21.13;13.25;;;11.10;66.00;;;;;;5092502;28;20027;-31
2022/03/22 06:52:21;;;;;;;19.55;12.82;;;11.20;65.90;;;;;;5092570;28;20586;-29
2022/03/22 06:54:46;;;;;;;18.67;12.73;;;11.20;65.70;;;;;;5092356;28;20050;-30
2022/03/22 06:57:12;;;;;;;20.10;14.05;;;11.30;65.60;;;;;;5092147;28;20050;-29
2022/03/22 06:59:38;;;;;;;19.27;12.95;;;11.30;65.30;;;;;;5092360;28;20107;-29
2022/03/22 07:02:05;;;;;;;17.90;13.32;;;11.40;65.20;;;;;;5092327;28;20534;-30
2022/03/22 07:04:31;;;;;;;20.20;13.63;;;11.40;64.90;;;;;;5094122;28;20098;-32
2022/03/22 07:06:57;;;;;;;18.80;13.05;;;11.50;64.80;;;;;;5096015;28;20024;-29
2022/03/22 07:09:22;;;;;;;20.23;13.23;;;11.50;64.50;;;;;;5095850;28;20020;-29
2022/03/22 07:11:51;;;;;;;22.40;13.88;;;11.60;64.40;;;;;;5095936;28;20480;-29
2022/03/22 07:14:21;;;;;;;21.15;13.15;;;11.60;64.20;;;;;;5095934;28;20024;-29
2022/03/22 07:16:47;;;;;;;22.23;12.95;;;11.60;64.00;;;;;;5095727;28;20492;-30
2022/03/22 07:19:14;;;;;;;21.02;12.23;;;11.70;63.90;;;;;;5095663;28;20044;-30
2022/03/22 07:21:40;;;;;;;18.65;12.27;;;11.70;63.80;;;;;;5095681;28;20020;-29
2022/03/22 07:24:06;;;;;;;20.58;12.50;;;11.70;63.60;;;;;;5095784;28;20059;-29
2022/03/22 07:26:31;;;;;;;21.13;13.55;;;11.70;63.40;;;;;;5095872;28;20117;-29
2022/03/22 07:28:57;;;;;;;19.67;12.30;;;11.70;63.30;;;;;;5095669;28;20056;-36
2022/03/22 07:31:23;;;;;;;21.10;12.82;;;11.80;63.20;;;;;;5095740;28;20032;-29
2022/03/22 07:33:48;;;;;;;21.65;12.32;;;11.80;63.10;;;;;;5077664;28;20024;-30
2022/03/22 07:36:14;;;;;;;18.13;12.98;;;11.80;62.80;;;;;;5095580;28;20472;-29
2022/03/22 07:38:39;;;;;;;20.58;13.50;;;11.90;62.70;;;;;;5095287;28;20020;-31
2022/03/22 07:41:07;;;;;;;20.42;11.88;;;11.90;62.60;;;;;;5095569;28;20024;-29
2022/03/22 07:43:33;;;;;;;20.45;12.98;;;11.90;62.30;;;;;;5076757;28;20032;-28
2022/03/22 07:45:58;;;;;;;17.08;11.93;;;11.90;62.10;;;;;;5095360;28;20020;-31
2022/03/22 07:48:24;;;;;;;20.15;11.80;;;12.00;62.00;;;;;;5095489;28;20020;-29
2022/03/22 07:53:34;;;;;;;16.33;11.20;;;12.10;61.60;;;;;;5095136;28;20032;-29
2022/03/22 07:56:00;;;;;;;18.63;11.55;;;12.10;61.50;;;;;;5076771;28;20048;-29
2022/03/22 07:58:26;;;;;;;18.67;10.70;;;12.10;61.20;;;;;;5094976;28;20516;-33
2022/03/22 08:00:51;;;;;;;17.17;11.07;;;12.20;61.10;;;;;;5094917;28;20050;-29
2022/03/22 08:03:18;;;;;;;21.33;11.70;;;12.20;62.00;;;;;;5076863;28;20012;-29
2022/03/22 08:05:47;;;;;;;17.02;11.65;;;12.20;61.50;;;;;;5095113;28;20028;-32
2022/03/22 08:08:13;;;;;;;17.35;10.80;;;12.30;61.20;;;;;;5094888;28;20028;-28
2022/03/22 08:10:39;;;;;;;18.77;11.45;;;12.30;60.90;;;;;;5094927;28;20461;-29
2022/03/22 08:13:08;;;;;;;23.27;12.00;;;12.40;60.60;;;;;;5094879;28;20016;-28
2022/03/22 08:15:34;;;;;;;18.92;11.50;;;12.50;60.30;;;;;;5094458;28;20040;-30
2022/03/22 08:18:00;;;;;;;19.75;11.25;;;12.50;60.40;;;;;;5094922;28;20020;-33
2022/03/22 08:20:30;;;;;;;14.13;9.82;;;12.60;60.30;;;;;;5094732;28;20059;-29
2022/03/22 08:23:03;;;;;;;14.05;9.85;;;12.60;60.40;;;;;;5077340;28;20113;-33
2022/03/22 08:25:32;;;;;;;14.30;9.77;;;12.70;61.10;;;;;;5094953;28;20067;-31
2022/03/22 08:28:00;;;;;;;16.77;9.73;;;12.70;61.40;;;;;;5094887;28;20089;-30
2022/03/22 08:30:26;;;;;;;19.45;11.40;;;12.70;60.70;;;;;;5094465;28;20017;-32
2022/03/22 08:32:55;;;;;;;16.85;11.70;;;12.80;60.50;;;;;;5094420;28;20027;-30
2022/03/22 08:35:23;;;;;;;16.13;10.23;;;12.80;59.90;;;;;;5094393;28;20073;-31
2022/03/22 08:37:49;;;;;;;15.88;10.48;;;12.80;59.70;;;;;;5094408;28;20032;-29
2022/03/22 08:40:15;;;;;;;14.77;9.95;;;12.90;60.40;;;;;;5094383;28;20020;-29
2022/03/22 08:42:46;;;;;;;16.92;10.98;;;12.90;60.10;;;;;;5094226;28;20487;-32
2022/03/22 08:45:19;;;;;;;12.23;8.40;;;13.00;60.50;;;;;;5094253;28;20028;-32
2022/03/22 08:47:46;;;;;;;17.35;10.32;;;13.10;60.10;;;;;;5094253;28;20016;-28
2022/03/22 08:50:14;;;;;;;16.50;11.05;;;13.10;60.70;;;;;;5094418;28;20020;-29
2022/03/22 08:52:41;;;;;;;15.88;11.02;;;13.10;61.10;;;;;;5094333;28;20027;-30
2022/03/22 08:55:09;;;;;;;16.42;10.52;;;13.20;60.50;;;;;;5094106;28;20016;-30
2022/03/22 08:57:36;;;;;;;15.57;11.05;;;13.30;59.90;;;;;;5094074;28;20045;-29
2022/03/22 09:00:09;;;;;;;20.45;12.18;;;13.30;59.60;;;;;;5093992;28;20016;-30
2022/03/22 09:02:35;;;;;;;16.10;11.40;;;13.40;59.20;;;;;;5093884;28;20020;-30
2022/03/22 09:07:47;;;;;;;21.25;12.07;;;13.50;58.50;;;;;;5094199;28;20173;-30
2022/03/22 09:10:14;;;;;;;16.60;11.65;;;13.60;58.50;;;;;;5093944;28;20442;-30
2022/03/22 09:12:40;;;;;;;15.23;11.00;;;13.60;58.20;;;;;;5093759;28;20377;-34
2022/03/22 09:15:06;;;;;;;20.08;11.43;;;13.70;58.70;;;;;;5093690;28;20484;-30
2022/03/22 09:17:32;;;;;;;16.25;10.90;;;13.80;58.50;;;;;;5093736;28;20164;-30
2022/03/22 09:19:58;;;;;;;15.85;11.57;;;13.90;58.20;;;;;;5093574;28;20028;-31
2022/03/22 09:22:23;;;;;;;18.70;11.38;;;14.00;58.50;;;;;;5093628;28;20024;-28
2022/03/22 09:24:49;;;;;;;16.30;11.20;;;14.10;58.30;;;;;;5093393;28;20434;-30
2022/03/22 09:27:15;;;;;;;21.25;12.02;;;14.10;58.20;;;;;;5092658;28;20351;-30
2022/03/22 09:29:40;;;;;;;17.52;11.50;;;14.20;57.80;;;;;;5093447;28;20027;-30
2022/03/22 09:32:06;;;;;;;20.50;11.90;;;14.30;57.70;;;;;;5093172;28;20028;-29
2022/03/22 09:34:32;;;;;;;17.88;11.27;;;14.30;57.50;;;;;;5093072;28;20094;-31
2022/03/22 09:36:59;;;;;;;17.80;12.05;;;14.50;57.50;;;;;;5074797;28;20028;-32
2022/03/22 09:39:25;;;;;;;17.20;11.35;;;14.60;57.40;;;;;;5093162;28;20081;-31
2022/03/22 09:41:51;;;;;;;18.15;12.13;;;14.70;57.10;;;;;;5093168;28;20438;-30
2022/03/22 09:44:20;;;;;;;18.65;11.98;;;14.70;56.70;;;;;;5074850;28;20016;-32
2022/03/22 09:46:48;;;;;;;19.73;11.50;;;14.90;56.60;;;;;;5093193;28;20491;-31
2022/03/22 09:49:15;;;;;;;20.63;12.60;;;15.00;56.60;;;;;;5092981;28;20016;-30
2022/03/22 09:51:48;;;;;;;18.60;11.20;;;15.00;56.20;;;;;;5093101;28;20024;-29
2022/03/22 09:54:17;;;;;;;20.10;12.73;;;15.10;56.10;;;;;;5092865;28;20103;-30
2022/03/22 09:56:45;;;;;;;18.05;11.80;;;15.20;56.30;;;;;;5092584;28;20178;-29
2022/03/22 09:59:12;;;;;;;18.73;11.13;;;15.30;56.40;;;;;;5092906;28;20380;-30
2022/03/22 10:01:39;;;;;;;17.63;11.93;;;15.40;56.00;;;;;;5093024;28;20144;-35
2022/03/22 10:04:07;;;;;;;17.85;11.90;;;15.50;55.90;;;;;;5092806;28;20426;-29
2022/03/22 10:06:33;;;;;;;19.63;11.82;;;15.60;55.60;;;;;;5092955;28;20103;-30
2022/03/22 10:08:59;;;;;;;21.17;12.20;;;15.70;55.40;;;;;;5092757;28;20484;-29
2022/03/22 10:11:39;;;;;;;18.40;11.23;;;15.80;55.10;;;;;;5092891;28;20024;-31
2022/03/22 10:14:08;;;;;;;17.15;12.10;;;15.80;54.70;;;;;;5092815;28;20077;-30
2022/03/22 10:16:48;;;;;;;19.48;11.57;;;16.00;54.70;;;;;;5092849;28;20511;-31
2022/03/22 10:19:22;;;;;;;14.48;11.02;;;16.00;54.60;;;;;;5074591;28;20020;-35
2022/03/22 10:21:47;;;;;;;;;;;16.10;54.80;;;;;;5093032;28;20024;-29
2022/03/22 10:24:17;;;;;;;16.15;10.35;;;16.20;54.90;;;;;;5092610;28;19904;-31
2022/03/22 10:26:46;;;;;;;17.88;10.75;;;16.20;55.00;;;;;;5092727;28;20451;-31
2022/03/22 10:29:16;;;;;;;18.48;10.68;;;16.30;54.80;;;;;;5092498;28;20112;-31
2022/03/22 10:31:44;;;;;;;17.75;11.40;;;16.40;54.70;;;;;;5092300;28;20035;-29
2022/03/22 10:34:11;;;;;;;18.17;11.80;;;16.50;54.30;;;;;;5074384;28;20016;-30
2022/03/22 10:36:39;;;;;;;17.23;10.70;;;16.50;54.00;;;;;;5092524;28;20024;-29
2022/03/22 10:39:11;;;;;;;17.23;11.30;;;16.60;53.90;;;;;;5095344;28;20081;-34
2022/03/22 10:41:40;;;;;;;18.05;10.98;;;16.70;53.70;;;;;;5096501;28;20022;-30
2022/03/22 10:44:15;;;;;;;18.42;10.65;;;16.80;53.90;;;;;;5096740;28;20055;-29
2022/03/22 10:46:44;;;;;;;14.15;9.10;;;16.90;53.50;;;;;;5096567;28;20069;-31
2022/03/22 10:49:15;;;;;;;16.83;10.40;;;17.00;53.90;;;;;;5096385;28;20020;-29
2022/03/22 10:51:45;;;;;;;15.75;10.45;;;17.00;53.70;;;;;;5096334;28;20051;-31
2022/03/22 10:54:15;;;;;;;16.27;10.82;;;17.00;53.40;;;;;;5096506;28;20012;-31
2022/03/22 10:56:46;;;;;;;12.05;8.10;;;17.10;53.70;;;;;;5095936;28;20051;-33
2022/03/22 10:59:13;;;;;;;17.50;9.95;;;17.20;54.00;;;;;;5078566;28;20043;-32
2022/03/22 11:01:44;;;;;;;15.40;10.05;;;17.20;53.90;;;;;;5096413;28;20047;-30
2022/03/22 11:04:11;;;;;;;15.50;10.70;;;17.30;53.30;;;;;;5096357;28;20071;-29
2022/03/22 11:06:38;;;;;;;11.85;8.75;;;17.40;53.00;;;;;;5077820;28;20028;-31
2022/03/22 11:09:04;;;;;;;16.02;9.73;;;17.40;53.50;;;;;;5095969;28;20483;-32
2022/03/22 11:11:31;;;;;;;13.93;9.07;;;17.40;53.00;;;;;;5095832;28;20024;-28
2022/03/22 11:14:00;;;;;;;14.80;10.20;;;17.40;53.70;;;;;;5095908;28;20499;-29
2022/03/22 11:16:33;;;;;;;13.52;9.32;;;17.50;53.50;;;;;;5095753;28;20027;-28
2022/03/22 11:19:00;;;;;;;14.27;10.30;;;17.60;53.30;;;;;;5095898;28;20487;-35
2022/03/22 11:21:27;;;;;;;16.55;10.25;;;17.60;53.10;;;;;;5096032;28;20494;-30
2022/03/22 11:24:08;;;;;;;13.75;8.30;;;17.70;52.90;;;;;;5077538;28;20062;-30
2022/03/22 11:26:43;;;;;;;12.95;8.50;;;17.70;53.20;;;;;;5095549;28;20040;-30
2022/03/22 11:29:15;;;;;;;15.35;9.20;;;17.80;53.10;;;;;;5095589;28;20046;-30
2022/03/22 11:31:42;;;;;;;13.52;9.68;;;17.90;53.50;;;;;;5095337;28;20050;-29
2022/03/22 11:34:09;;;;;;;16.75;10.35;;;17.90;52.90;;;;;;5095597;28;20066;-29
2022/03/22 11:36:46;;;;;;;19.88;10.95;;;18.00;52.40;;;;;;5095177;28;20064;-31
2022/03/22 11:42:15;;;;;;;12.77;7.82;;;18.10;51.90;;;;;;5095623;28;20024;-31
2022/03/22 11:42:17;;;;;;;14.98;9.52;;;18.10;52.70;;;;;;5095266;28;20050;-30
2022/03/22 11:45:07;;;;;;;17.00;9.73;;;18.20;52.10;;;;;;5095167;28;20533;-29
2022/03/22 11:47:44;;;;;;;11.43;7.47;;;18.20;52.60;;;;;;5095173;28;20027;-29
2022/03/22 11:50:16;;;;;;;13.95;9.23;;;18.30;52.70;;;;;;5094436;28;20056;-29
2022/03/22 11:52:42;;;;;;;16.17;10.30;;;18.30;52.50;;;;;;5095295;28;20537;-29
2022/03/22 11:55:13;;;;;;;14.10;8.90;;;18.30;52.00;;;;;;5094909;28;20104;-32
2022/03/22 11:57:41;;;;;;;13.40;9.38;;;18.40;51.80;;;;;;5094866;28;20032;-32
2022/03/22 12:00:08;;;;;;;15.57;9.90;;;18.40;52.20;;;;;;5076821;28;20040;-30
2022/03/22 12:02:42;;;;;;;15.45;9.93;;;18.50;52.20;;;;;;5094861;28;20065;-29
2022/03/22 12:05:07;;;;;;;12.05;8.50;;;18.60;52.10;;;;;;5094892;28;20110;-29
2022/03/22 12:07:38;;;;;;;11.70;7.68;;;18.60;52.10;;;;;;5094749;28;20170;-30
2022/03/22 12:10:13;;;;;;;13.27;8.02;;;18.60;52.00;;;;;;5095029;28;20533;-32
2022/03/22 12:12:41;;;;;;;15.52;10.15;;;18.70;52.10;;;;;;5094668;28;20032;-31
2022/03/22 12:15:16;;;;;;;14.52;9.63;;;18.80;51.80;;;;;;5094981;28;20028;-29
2022/03/22 12:17:42;;;;;;;12.07;8.40;;;18.90;51.20;;;;;;5094789;28;20060;-30
2022/03/22 12:20:13;;;;;;;14.60;8.60;;;18.90;51.50;;;;;;5094767;28;20057;-31
2022/03/22 12:22:45;;;;;;;13.05;7.95;;;18.90;51.50;;;;;;5094645;28;20034;-31
2022/03/22 12:25:13;;;;;;;13.35;9.75;;;19.00;51.30;;;;;;5094703;28;20028;-33
2022/03/22 12:27:52;;;;;;;12.80;8.38;;;19.10;51.10;;;;;;5094439;28;20028;-30
2022/03/22 12:30:20;;;;;;;10.35;7.10;;;19.10;51.30;;;;;;5094399;28;20028;-31
2022/03/22 12:32:48;;;;;;;10.18;7.07;;;19.20;51.10;;;;;;5076190;28;20027;-32
2022/03/22 12:35:14;;;;;;;16.00;9.85;;;19.30;51.00;;;;;;5094332;28;20476;-29
2022/03/22 12:37:39;;;;;;;13.60;8.85;;;19.40;50.40;;;;;;5094234;28;20036;-29
2022/03/22 12:40:06;;;;;;;14.38;8.75;;;19.40;50.30;;;;;;5094445;28;20438;-31
2022/03/22 12:42:33;;;;;;;11.30;8.75;;;19.50;50.20;;;;;;5076197;28;20016;-30
2022/03/22 12:44:59;;;;;;;11.52;8.38;;;19.50;50.00;;;;;;5094567;28;20024;-32
2022/03/22 12:47:25;;;;;;;11.27;8.10;;;19.60;50.00;;;;;;5094200;28;20020;-29
2022/03/22 12:49:51;;;;;;;10.43;7.25;;;19.60;49.80;;;;;;5094171;28;20038;-29
2022/03/22 12:52:16;;;;;;;11.02;8.00;;;19.60;50.20;;;;;;5094198;28;20024;-31
2022/03/22 12:54:44;;;;;;;10.00;7.07;;;19.60;49.90;;;;;;5094059;28;20032;-30
2022/03/22 12:57:12;;;;;;;13.63;8.77;;;19.70;50.10;;;;;;5093846;28;20051;-29